Lone Mountain, Texas
Current Conditions -  °F | °C
As of 7:55 PM on Friday 24 Oct 2014 (Local Time) from KOSA Reporting Station
Clear Clear  
Wind Chill: 66°   Ceiling: Unl
Heat Index: 66°   Visibility: 10mi
Dew Point: 61°   Wind: 3mph
Humidity: 82%   Direction: 140°SE
Pressure: 30.11"   Gusts: NA
Location:  32.7353°N, 94.9492°W
Report Text: KOSA 250055Z AUTO 14003KT 10SM CLR 19/16 A3011 RMK AO1 T01910160
Loading
Personal Weather Stations






























Interactive Weather Map
Tropical Storm Tracking
New forecast layout! Learn more

10-Day Weather Forecast

Advertisements
Track Severe Weather on mobile